sensor_id;sensor_type;location;lat;lon;timestamp;pressure;altitude;pressure_sealevel;temperature;humidity
81352;BME280;70809;52.184;13.422;2023-10-13T00:00:36;101100.88;;;14.54;88.49
81352;BME280;70809;52.184;13.422;2023-10-13T00:01:38;101103.50;;;14.46;88.89
81352;BME280;70809;52.184;13.422;2023-10-13T00:02:40;101104.34;;;14.44;89.17
81352;BME280;70809;52.184;13.422;2023-10-13T00:03:42;101105.22;;;14.35;89.23
81352;BME280;70809;52.184;13.422;2023-10-13T00:04:44;101102.53;;;14.30;89.78
81352;BME280;70809;52.184;13.422;2023-10-13T00:05:45;101096.38;;;14.34;90.05
81352;BME280;70809;52.184;13.422;2023-10-13T00:06:47;101100.81;;;14.43;89.70
81352;BME280;70809;52.184;13.422;2023-10-13T00:07:49;101099.03;;;14.41;89.69
81352;BME280;70809;52.184;13.422;2023-10-13T00:08:50;101097.25;;;14.43;89.65
81352;BME280;70809;52.184;13.422;2023-10-13T00:09:53;101090.16;;;14.45;89.58
81352;BME280;70809;52.184;13.422;2023-10-13T00:10:55;101093.78;;;14.47;89.61
81352;BME280;70809;52.184;13.422;2023-10-13T00:11:57;101091.16;;;14.51;89.39
81352;BME280;70809;52.184;13.422;2023-10-13T00:12:59;101089.34;;;14.56;89.47
81352;BME280;70809;52.184;13.422;2023-10-13T00:14:04;101092.03;;;14.58;89.15
81352;BME280;70809;52.184;13.422;2023-10-13T00:15:06;101088.50;;;14.59;89.12
81352;BME280;70809;52.184;13.422;2023-10-13T00:16:08;101091.16;;;14.51;88.66
81352;BME280;70809;52.184;13.422;2023-10-13T00:17:10;101090.16;;;14.45;89.02
81352;BME280;70809;52.184;13.422;2023-10-13T00:18:12;101091.09;;;14.45;89.31
81352;BME280;70809;52.184;13.422;2023-10-13T00:19:14;101092.88;;;14.49;89.31
81352;BME280;70809;52.184;13.422;2023-10-13T00:20:15;101101.78;;;14.51;89.04
81352;BME280;70809;52.184;13.422;2023-10-13T00:21:17;101092.91;;;14.52;89.04
81352;BME280;70809;52.184;13.422;2023-10-13T00:22:19;101092.03;;;14.55;89.14
81352;BME280;70809;52.184;13.422;2023-10-13T00:23:21;101099.13;;;14.53;89.01
81352;BME280;70809;52.184;13.422;2023-10-13T00:24:22;101085.78;;;14.45;89.14
81352;BME280;70809;52.184;13.422;2023-10-13T00:25:25;101091.03;;;14.33;89.25
81352;BME280;70809;52.184;13.422;2023-10-13T00:26:28;101100.69;;;14.14;90.12
81352;BME280;70809;52.184;13.422;2023-10-13T00:27:32;101093.56;;;14.07;90.67
81352;BME280;70809;52.184;13.422;2023-10-13T00:28:34;101097.97;;;14.03;91.15
81352;BME280;70809;52.184;13.422;2023-10-13T00:29:35;101098.84;;;14.04;91.35
81352;BME280;70809;52.184;13.422;2023-10-13T00:30:37;101092.66;;;14.02;91.05
81352;BME280;70809;52.184;13.422;2023-10-13T00:31:39;101092.63;;;13.94;91.30
81352;BME280;70809;52.184;13.422;2023-10-13T00:32:42;101093.41;;;13.81;91.78
81352;BME280;70809;52.184;13.422;2023-10-13T00:33:43;101088.97;;;13.77;92.39
81352;BME280;70809;52.184;13.422;2023-10-13T00:34:45;101091.66;;;13.81;92.28
81352;BME280;70809;52.184;13.422;2023-10-13T00:35:46;101091.69;;;13.86;92.19
81352;BME280;70809;52.184;13.422;2023-10-13T00:36:48;101087.28;;;13.91;92.27
81352;BME280;70809;52.184;13.422;2023-10-13T00:37:51;101090.81;;;13.90;91.65
81352;BME280;70809;52.184;13.422;2023-10-13T00:38:53;101089.03;;;13.83;92.16
81352;BME280;70809;52.184;13.422;2023-10-13T00:39:54;101100.50;;;13.80;92.09
81352;BME280;70809;52.184;13.422;2023-10-13T00:40:57;101081.94;;;13.85;92.69
81352;BME280;70809;52.184;13.422;2023-10-13T00:41:59;101084.66;;;13.94;92.45
81352;BME280;70809;52.184;13.422;2023-10-13T00:43:01;101087.34;;;14.00;91.98
81352;BME280;70809;52.184;13.422;2023-10-13T00:44:03;101081.13;;;13.97;91.61
81352;BME280;70809;52.184;13.422;2023-10-13T00:45:06;101086.44;;;13.98;91.72
81352;BME280;70809;52.184;13.422;2023-10-13T00:46:08;101080.25;;;14.02;91.57
81352;BME280;70809;52.184;13.422;2023-10-13T00:47:11;101085.59;;;14.07;91.54
81352;BME280;70809;52.184;13.422;2023-10-13T00:48:13;101089.16;;;14.09;91.64
81352;BME280;70809;52.184;13.422;2023-10-13T00:49:17;101089.13;;;14.01;91.34
81352;BME280;70809;52.184;13.422;2023-10-13T00:50:19;101086.41;;;13.91;91.65
81352;BME280;70809;52.184;13.422;2023-10-13T00:51:21;101090.78;;;13.84;92.45
81352;BME280;70809;52.184;13.422;2023-10-13T00:52:23;101088.16;;;13.89;92.37
81352;BME280;70809;52.184;13.422;2023-10-13T00:53:25;101087.31;;;13.94;92.18
81352;BME280;70809;52.184;13.422;2023-10-13T00:54:27;101083.81;;;14.00;92.08
81352;BME280;70809;52.184;13.422;2023-10-13T00:55:29;101088.25;;;14.07;91.80
81352;BME280;70809;52.184;13.422;2023-10-13T00:56:32;101082.97;;;14.15;91.89
81352;BME280;70809;52.184;13.422;2023-10-13T00:57:33;101081.22;;;14.20;91.59
81352;BME280;70809;52.184;13.422;2023-10-13T00:58:36;101087.44;;;14.22;90.63
81352;BME280;70809;52.184;13.422;2023-10-13T00:59:38;101087.38;;;14.06;91.05
81352;BME280;70809;52.184;13.422;2023-10-13T01:00:40;101082.00;;;13.97;91.33
81352;BME280;70809;52.184;13.422;2023-10-13T01:01:42;101078.47;;;13.97;91.87
81352;BME280;70809;52.184;13.422;2023-10-13T01:02:44;101079.34;;;13.99;91.85
81352;BME280;70809;52.184;13.422;2023-10-13T01:03:47;101079.28;;;13.85;92.25
81352;BME280;70809;52.184;13.422;2023-10-13T01:04:49;101089.84;;;13.76;93.00
81352;BME280;70809;52.184;13.422;2023-10-13T01:05:51;101086.31;;;13.77;93.27
81352;BME280;70809;52.184;13.422;2023-10-13T01:06:53;101089.03;;;13.86;93.01
81352;BME280;70809;52.184;13.422;2023-10-13T01:07:55;101086.41;;;13.89;92.87
81352;BME280;70809;52.184;13.422;2023-10-13T01:08:58;101083.78;;;13.97;92.63
81352;BME280;70809;52.184;13.422;2023-10-13T01:10:01;101088.22;;;14.01;92.27
81352;BME280;70809;52.184;13.422;2023-10-13T01:11:03;101088.25;;;14.05;92.05
81352;BME280;70809;52.184;13.422;2023-10-13T01:12:06;101084.75;;;14.11;92.06
81352;BME280;70809;52.184;13.422;2023-10-13T01:13:08;101082.06;;;14.08;91.78
81352;BME280;70809;52.184;13.422;2023-10-13T01:14:10;101081.16;;;14.11;91.73
81352;BME280;70809;52.184;13.422;2023-10-13T01:15:12;101082.97;;;14.16;91.48
81352;BME280;70809;52.184;13.422;2023-10-13T01:16:13;101076.78;;;14.13;91.50
81352;BME280;70809;52.184;13.422;2023-10-13T01:17:16;101084.69;;;14.02;91.74
81352;BME280;70809;52.184;13.422;2023-10-13T01:18:18;101081.97;;;13.91;92.42
81352;BME280;70809;52.184;13.422;2023-10-13T01:19:20;101082.84;;;13.93;92.47
81352;BME280;70809;52.184;13.422;2023-10-13T01:20:22;101076.69;;;13.94;92.86
81352;BME280;70809;52.184;13.422;2023-10-13T01:21:23;101082.88;;;13.96;92.33
81352;BME280;70809;52.184;13.422;2023-10-13T01:22:25;101080.16;;;13.87;92.28
81352;BME280;70809;52.184;13.422;2023-10-13T01:23:28;101078.41;;;13.86;92.65
81352;BME280;70809;52.184;13.422;2023-10-13T01:24:30;101081.94;;;13.85;92.84
81352;BME280;70809;52.184;13.422;2023-10-13T01:25:32;101076.66;;;13.91;92.96
81352;BME280;70809;52.184;13.422;2023-10-13T01:26:35;101075.81;;;13.98;93.19
81352;BME280;70809;52.184;13.422;2023-10-13T01:27:37;101073.19;;;14.04;92.65
81352;BME280;70809;52.184;13.422;2023-10-13T01:28:39;101069.69;;;14.12;92.26
81352;BME280;70809;52.184;13.422;2023-10-13T01:29:41;101062.63;;;14.17;91.81
81352;BME280;70809;52.184;13.422;2023-10-13T01:30:42;101074.13;;;14.19;91.23
81352;BME280;70809;52.184;13.422;2023-10-13T01:31:45;101072.38;;;14.21;91.55
81352;BME280;70809;52.184;13.422;2023-10-13T01:32:47;101072.38;;;14.25;91.23
81352;BME280;70809;52.184;13.422;2023-10-13T01:33:53;101069.72;;;14.27;91.21
81352;BME280;70809;52.184;13.422;2023-10-13T01:34:55;101061.75;;;14.25;90.79
81352;BME280;70809;52.184;13.422;2023-10-13T01:35:57;101071.47;;;14.16;91.06
81352;BME280;70809;52.184;13.422;2023-10-13T01:36:59;101068.81;;;14.16;91.58
81352;BME280;70809;52.184;13.422;2023-10-13T01:38:01;101073.25;;;14.20;91.43
81352;BME280;70809;52.184;13.422;2023-10-13T01:39:04;101071.47;;;14.22;91.30
81352;BME280;70809;52.184;13.422;2023-10-13T01:40:06;101067.97;;;14.24;91.01
81352;BME280;70809;52.184;13.422;2023-10-13T01:41:08;101068.81;;;14.22;90.73
81352;BME280;70809;52.184;13.422;2023-10-13T01:42:10;101067.84;;;13.95;90.48
81352;BME280;70809;52.184;13.422;2023-10-13T01:43:11;101071.28;;;13.80;92.47
81352;BME280;70809;52.184;13.422;2023-10-13T01:44:13;101073.03;;;13.75;93.20
81352;BME280;70809;52.184;13.422;2023-10-13T01:45:15;101073.09;;;13.86;93.32
81352;BME280;70809;52.184;13.422;2023-10-13T01:46:16;101071.34;;;13.91;92.96
81352;BME280;70809;52.184;13.422;2023-10-13T01:47:18;101065.16;;;13.91;92.87
81352;BME280;70809;52.184;13.422;2023-10-13T01:48:20;101077.53;;;13.93;92.88
81352;BME280;70809;52.184;13.422;2023-10-13T01:49:22;101072.25;;;13.96;92.05
81352;BME280;70809;52.184;13.422;2023-10-13T01:50:24;101066.06;;;13.97;92.35
81352;BME280;70809;52.184;13.422;2023-10-13T01:51:26;101077.59;;;13.99;92.30
81352;BME280;70809;52.184;13.422;2023-10-13T01:52:28;101074.97;;;14.05;92.70
81352;BME280;70809;52.184;13.422;2023-10-13T01:53:29;101070.56;;;14.14;92.19
81352;BME280;70809;52.184;13.422;2023-10-13T01:54:32;101064.41;;;14.18;91.67
81352;BME280;70809;52.184;13.422;2023-10-13T01:55:34;101066.13;;;14.09;91.31
81352;BME280;70809;52.184;13.422;2023-10-13T01:56:38;101068.78;;;14.06;91.60
81352;BME280;70809;52.184;13.422;2023-10-13T01:57:39;101074.13;;;14.11;91.76
81352;BME280;70809;52.184;13.422;2023-10-13T01:58:41;101059.94;;;14.12;91.33
81352;BME280;70809;52.184;13.422;2023-10-13T01:59:43;101070.56;;;14.12;91.46
81352;BME280;70809;52.184;13.422;2023-10-13T02:53:01;101000.56;;;14.02;93.92
81352;BME280;70809;52.184;13.422;2023-10-13T02:54:04;100995.22;;;13.95;93.91
81352;BME280;70809;52.184;13.422;2023-10-13T02:55:06;101001.44;;;13.95;93.88
81352;BME280;70809;52.184;13.422;2023-10-13T02:56:08;101006.78;;;14.07;93.98
81352;BME280;70809;52.184;13.422;2023-10-13T02:57:09;101001.50;;;14.14;93.60
81352;BME280;70809;52.184;13.422;2023-10-13T02:58:11;100999.72;;;14.16;92.85
81352;BME280;70809;52.184;13.422;2023-10-13T02:59:13;100995.28;;;14.12;93.01
81352;BME280;70809;52.184;13.422;2023-10-13T03:00:15;100990.88;;;14.17;93.33
81352;BME280;70809;52.184;13.422;2023-10-13T03:01:18;100995.31;;;14.25;92.95
81352;BME280;70809;52.184;13.422;2023-10-13T03:02:20;100998.88;;;14.32;92.56
81352;BME280;70809;52.184;13.422;2023-10-13T03:03:22;100989.16;;;14.39;92.00
81352;BME280;70809;52.184;13.422;2023-10-13T03:04:24;100998.91;;;14.41;91.54
81352;BME280;70809;52.184;13.422;2023-10-13T03:05:25;100988.28;;;14.41;91.77
81352;BME280;70809;52.184;13.422;2023-10-13T03:06:27;100988.28;;;14.41;91.45
81352;BME280;70809;52.184;13.422;2023-10-13T03:07:29;100988.28;;;14.44;91.45
81352;BME280;70809;52.184;13.422;2023-10-13T03:08:33;100989.19;;;14.46;91.40
81352;BME280;70809;52.184;13.422;2023-10-13T03:09:34;100993.63;;;14.46;91.59
81352;BME280;70809;52.184;13.422;2023-10-13T03:10:36;100988.28;;;14.41;91.74
81352;BME280;70809;52.184;13.422;2023-10-13T03:11:38;100976.78;;;14.45;91.75
81352;BME280;70809;52.184;13.422;2023-10-13T03:12:40;100976.81;;;14.53;91.85
81352;BME280;70809;52.184;13.422;2023-10-13T03:13:42;100993.63;;;14.56;91.32
81352;BME280;70809;52.184;13.422;2023-10-13T03:14:44;100976.81;;;14.59;91.17
81352;BME280;70809;52.184;13.422;2023-10-13T03:15:46;100979.47;;;14.60;91.23
81352;BME280;70809;52.184;13.422;2023-10-13T03:16:47;100983.00;;;14.67;91.14
81352;BME280;70809;52.184;13.422;2023-10-13T03:17:49;100978.59;;;14.69;90.89
81352;BME280;70809;52.184;13.422;2023-10-13T03:18:51;100976.84;;;14.76;90.83
81352;BME280;70809;52.184;13.422;2023-10-13T03:19:53;100974.16;;;14.79;90.58
81352;BME280;70809;52.184;13.422;2023-10-13T03:20:55;100974.16;;;14.82;90.29
81352;BME280;70809;52.184;13.422;2023-10-13T03:21:56;100977.72;;;14.84;89.37
81352;BME280;70809;52.184;13.422;2023-10-13T03:22:58;100975.94;;;14.81;89.87
81352;BME280;70809;52.184;13.422;2023-10-13T03:24:02;100978.59;;;14.77;89.95
81352;BME280;70809;52.184;13.422;2023-10-13T03:25:06;100972.41;;;14.81;89.92
81352;BME280;70809;52.184;13.422;2023-10-13T03:26:09;100971.50;;;14.88;89.90
81352;BME280;70809;52.184;13.422;2023-10-13T03:27:12;100959.97;;;14.89;89.70
81352;BME280;70809;52.184;13.422;2023-10-13T03:28:14;100963.53;;;14.91;89.61
81352;BME280;70809;52.184;13.422;2023-10-13T03:29:16;100967.06;;;14.90;89.60
81352;BME280;70809;52.184;13.422;2023-10-13T03:30:18;100973.28;;;14.89;89.70
81352;BME280;70809;52.184;13.422;2023-10-13T03:31:20;100975.94;;;14.83;89.57
81352;BME280;70809;52.184;13.422;2023-10-13T03:32:22;100983.03;;;14.75;89.92
81352;BME280;70809;52.184;13.422;2023-10-13T03:33:24;100978.59;;;14.77;90.03
81352;BME280;70809;52.184;13.422;2023-10-13T03:34:25;100970.63;;;14.78;89.90
81352;BME280;70809;52.184;13.422;2023-10-13T03:35:27;100974.16;;;14.82;89.90
81352;BME280;70809;52.184;13.422;2023-10-13T03:36:29;100972.41;;;14.82;89.78
81352;BME280;70809;52.184;13.422;2023-10-13T03:37:30;100967.94;;;14.84;89.75
81352;BME280;70809;52.184;13.422;2023-10-13T03:38:32;100971.50;;;14.83;89.62
81352;BME280;70809;52.184;13.422;2023-10-13T03:39:35;100975.94;;;14.83;89.77
81352;BME280;70809;52.184;13.422;2023-10-13T03:40:37;100970.63;;;14.86;89.70
81352;BME280;70809;52.184;13.422;2023-10-13T03:41:38;100967.06;;;14.90;89.40
81352;BME280;70809;52.184;13.422;2023-10-13T03:42:40;100964.41;;;14.95;89.45
81352;BME280;70809;52.184;13.422;2023-10-13T03:43:42;100966.19;;;14.97;89.20
81352;BME280;70809;52.184;13.422;2023-10-13T03:44:44;100964.41;;;14.99;88.66
81352;BME280;70809;52.184;13.422;2023-10-13T03:45:46;100960.88;;;14.97;88.64
81352;BME280;70809;52.184;13.422;2023-10-13T03:46:48;100965.31;;;14.98;88.61
81352;BME280;70809;52.184;13.422;2023-10-13T03:47:49;100961.75;;;14.99;88.42
81352;BME280;70809;52.184;13.422;2023-10-13T03:48:51;100955.53;;;15.02;88.35
81352;BME280;70809;52.184;13.422;2023-10-13T03:49:53;100959.09;;;15.01;87.70
81352;BME280;70809;52.184;13.422;2023-10-13T03:50:56;100952.88;;;15.02;88.15
81352;BME280;70809;52.184;13.422;2023-10-13T03:52:01;100959.09;;;15.01;88.00
81352;BME280;70809;52.184;13.422;2023-10-13T03:53:03;100959.97;;;15.04;88.10
81352;BME280;70809;52.184;13.422;2023-10-13T03:54:05;100962.63;;;15.06;88.23
81352;BME280;70809;52.184;13.422;2023-10-13T03:55:08;100955.56;;;15.03;88.35
81352;BME280;70809;52.184;13.422;2023-10-13T03:56:10;100957.31;;;15.03;88.29
81352;BME280;70809;52.184;13.422;2023-10-13T03:57:11;100958.19;;;15.06;88.33
81352;BME280;70809;52.184;13.422;2023-10-13T03:58:13;100958.19;;;15.09;88.05
81352;BME280;70809;52.184;13.422;2023-10-13T03:59:15;100953.75;;;15.10;88.00
81352;BME280;70809;52.184;13.422;2023-10-13T04:00:17;100958.19;;;15.06;87.75
81352;BME280;70809;52.184;13.422;2023-10-13T04:01:18;100963.50;;;15.06;88.30
81352;BME280;70809;52.184;13.422;2023-10-13T04:02:20;100957.31;;;15.06;88.02
81352;BME280;70809;52.184;13.422;2023-10-13T04:03:25;100945.78;;;15.08;88.00
81352;BME280;70809;52.184;13.422;2023-10-13T04:04:27;100952.84;;;15.08;87.99
81352;BME280;70809;52.184;13.422;2023-10-13T04:05:29;100949.34;;;15.09;87.54
81352;BME280;70809;52.184;13.422;2023-10-13T04:06:31;100953.75;;;15.10;87.77
81352;BME280;70809;52.184;13.422;2023-10-13T04:07:33;100952.84;;;15.12;87.61
81352;BME280;70809;52.184;13.422;2023-10-13T04:08:37;100947.56;;;15.14;87.64
81352;BME280;70809;52.184;13.422;2023-10-13T04:09:40;100948.44;;;15.08;88.06
81352;BME280;70809;52.184;13.422;2023-10-13T04:10:43;100942.22;;;15.05;88.09
81352;BME280;70809;52.184;13.422;2023-10-13T04:11:44;100944.88;;;15.06;88.17
81352;BME280;70809;52.184;13.422;2023-10-13T04:12:46;100940.47;;;15.10;88.07
81352;BME280;70809;52.184;13.422;2023-10-13T04:13:48;100928.94;;;15.09;87.74
81352;BME280;70809;52.184;13.422;2023-10-13T04:14:49;100930.69;;;15.10;88.00
81352;BME280;70809;52.184;13.422;2023-10-13T04:15:51;100934.25;;;15.05;87.37
81352;BME280;70809;52.184;13.422;2023-10-13T04:16:53;100936.03;;;15.03;87.87
81352;BME280;70809;52.184;13.422;2023-10-13T04:17:55;100932.47;;;15.05;88.41
81352;BME280;70809;52.184;13.422;2023-10-13T04:18:57;100931.56;;;15.06;88.16
81352;BME280;70809;52.184;13.422;2023-10-13T04:19:58;100930.72;;;15.04;87.81
81352;BME280;70809;52.184;13.422;2023-10-13T04:21:00;100930.69;;;15.06;87.90
81352;BME280;70809;52.184;13.422;2023-10-13T04:22:02;100923.59;;;15.08;88.22
81352;BME280;70809;52.184;13.422;2023-10-13T04:23:03;100928.94;;;15.05;88.24
81352;BME280;70809;52.184;13.422;2023-10-13T04:24:06;100929.81;;;15.01;88.61
81352;BME280;70809;52.184;13.422;2023-10-13T04:25:07;100933.38;;;14.98;88.85
81352;BME280;70809;52.184;13.422;2023-10-13T04:26:10;100935.16;;;14.93;89.15
81352;BME280;70809;52.184;13.422;2023-10-13T04:27:12;100924.50;;;14.90;89.42
81352;BME280;70809;52.184;13.422;2023-10-13T04:28:14;100932.50;;;14.85;89.63
81352;BME280;70809;52.184;13.422;2023-10-13T04:29:18;100936.03;;;14.87;89.67
81352;BME280;70809;52.184;13.422;2023-10-13T04:30:20;100928.94;;;14.88;89.31
81352;BME280;70809;52.184;13.422;2023-10-13T04:31:21;100917.41;;;14.91;89.76
81352;BME280;70809;52.184;13.422;2023-10-13T04:32:23;100909.41;;;14.91;89.20
81352;BME280;70809;52.184;13.422;2023-10-13T04:33:26;100915.66;;;14.91;88.99
81352;BME280;70809;52.184;13.422;2023-10-13T04:34:28;100908.56;;;14.92;88.90
81352;BME280;70809;52.184;13.422;2023-10-13T04:35:29;100910.31;;;14.96;88.99
81352;BME280;70809;52.184;13.422;2023-10-13T04:36:31;100911.19;;;14.96;88.83
81352;BME280;70809;52.184;13.422;2023-10-13T04:37:33;100913.00;;;14.93;88.70
81352;BME280;70809;52.184;13.422;2023-10-13T04:38:34;100913.88;;;14.93;89.46
81352;BME280;70809;52.184;13.422;2023-10-13T04:39:36;100906.75;;;14.95;89.64
81352;BME280;70809;52.184;13.422;2023-10-13T04:40:40;100905.88;;;14.96;89.30
81352;BME280;70809;52.184;13.422;2023-10-13T04:41:44;100910.31;;;15.00;89.19
81352;BME280;70809;52.184;13.422;2023-10-13T04:42:47;100909.41;;;15.00;89.25
81352;BME280;70809;52.184;13.422;2023-10-13T04:43:49;100910.31;;;15.00;89.35
81352;BME280;70809;52.184;13.422;2023-10-13T04:44:50;100915.63;;;14.96;89.11
81352;BME280;70809;52.184;13.422;2023-10-13T04:45:52;100912.09;;;14.95;89.07
81352;BME280;70809;52.184;13.422;2023-10-13T04:46:54;100913.91;;;14.85;89.61
81352;BME280;70809;52.184;13.422;2023-10-13T04:47:56;100918.31;;;14.83;90.19
81352;BME280;70809;52.184;13.422;2023-10-13T04:48:58;100917.44;;;14.81;90.10
81352;BME280;70809;52.184;13.422;2023-10-13T04:50:01;100910.34;;;14.82;90.48
81352;BME280;70809;52.184;13.422;2023-10-13T04:51:03;100909.44;;;14.84;90.57
81352;BME280;70809;52.184;13.422;2023-10-13T04:52:05;100896.16;;;14.87;90.60
81352;BME280;70809;52.184;13.422;2023-10-13T04:53:07;100902.34;;;14.93;90.37
81352;BME280;70809;52.184;13.422;2023-10-13T04:54:09;100906.78;;;14.86;90.48
81352;BME280;70809;52.184;13.422;2023-10-13T04:55:10;100902.38;;;14.80;90.58
81352;BME280;70809;52.184;13.422;2023-10-13T04:56:12;100898.81;;;14.80;90.58
81352;BME280;70809;52.184;13.422;2023-10-13T04:57:16;100896.16;;;14.86;90.37
81352;BME280;70809;52.184;13.422;2023-10-13T04:58:18;100898.78;;;14.91;90.21
81352;BME280;70809;52.184;13.422;2023-10-13T04:59:19;100903.22;;;14.84;90.34
81352;BME280;70809;52.184;13.422;2023-10-13T05:00:21;100904.16;;;14.80;89.92
81352;BME280;70809;52.184;13.422;2023-10-13T05:01:23;100892.59;;;14.81;90.81
81352;BME280;70809;52.184;13.422;2023-10-13T05:02:25;100905.03;;;14.80;90.82
81352;BME280;70809;52.184;13.422;2023-10-13T05:03:27;100907.66;;;14.83;91.02
81352;BME280;70809;52.184;13.422;2023-10-13T05:04:29;100900.56;;;14.88;91.03
81352;BME280;70809;52.184;13.422;2023-10-13T05:05:30;100897.03;;;14.93;90.63
81352;BME280;70809;52.184;13.422;2023-10-13T05:06:32;100898.81;;;14.97;90.32
81352;BME280;70809;52.184;13.422;2023-10-13T05:07:34;100902.34;;;14.97;89.97
81352;BME280;70809;52.184;13.422;2023-10-13T05:08:35;100892.59;;;14.98;90.05
81352;BME280;70809;52.184;13.422;2023-10-13T05:09:38;100892.56;;;14.99;90.15
81352;BME280;70809;52.184;13.422;2023-10-13T05:10:40;100893.47;;;15.03;90.05
81352;BME280;70809;52.184;13.422;2023-10-13T05:11:42;100898.75;;;15.06;89.73
81352;BME280;70809;52.184;13.422;2023-10-13T05:12:45;100895.22;;;15.04;89.63
81352;BME280;70809;52.184;13.422;2023-10-13T05:13:46;100892.56;;;14.99;89.59
81352;BME280;70809;52.184;13.422;2023-10-13T05:14:48;100889.94;;;14.98;89.33
81352;BME280;70809;52.184;13.422;2023-10-13T05:15:50;100891.69;;;14.96;88.97
81352;BME280;70809;52.184;13.422;2023-10-13T05:16:52;100889.03;;;14.94;88.60
81352;BME280;70809;52.184;13.422;2023-10-13T05:17:54;100891.72;;;14.93;88.08
81352;BME280;70809;52.184;13.422;2023-10-13T05:18:55;100889.06;;;14.91;88.67
81352;BME280;70809;52.184;13.422;2023-10-13T05:19:57;100886.41;;;14.91;88.60
81352;BME280;70809;52.184;13.422;2023-10-13T05:20:59;100882.84;;;14.92;88.57
81352;BME280;70809;52.184;13.422;2023-10-13T05:22:01;100883.72;;;14.93;88.12
81352;BME280;70809;52.184;13.422;2023-10-13T05:23:03;100887.28;;;14.93;88.25
81352;BME280;70809;52.184;13.422;2023-10-13T05:24:05;100883.72;;;14.93;87.86
81352;BME280;70809;52.184;13.422;2023-10-13T05:25:07;100886.41;;;14.86;88.31
81352;BME280;70809;52.184;13.422;2023-10-13T05:26:09;100881.97;;;14.81;88.40
81352;BME280;70809;52.184;13.422;2023-10-13T05:27:11;100889.97;;;14.75;88.19
81352;BME280;70809;52.184;13.422;2023-10-13T05:28:14;100890.84;;;14.71;88.67
81352;BME280;70809;52.184;13.422;2023-10-13T05:29:31;100881.09;;;14.70;88.54
81352;BME280;70809;52.184;13.422;2023-10-13T05:30:33;100890.81;;;14.68;89.00
81352;BME280;70809;52.184;13.422;2023-10-13T05:31:34;100888.19;;;14.71;88.61
81352;BME280;70809;52.184;13.422;2023-10-13T05:32:36;100889.97;;;14.75;88.68
81352;BME280;70809;52.184;13.422;2023-10-13T05:33:38;100889.06;;;14.73;88.84
81352;BME280;70809;52.184;13.422;2023-10-13T05:34:40;100905.91;;;14.75;89.28
81352;BME280;70809;52.184;13.422;2023-10-13T05:35:41;100898.81;;;14.77;89.57
81352;BME280;70809;52.184;13.422;2023-10-13T05:36:43;100897.03;;;14.79;89.35
81352;BME280;70809;52.184;13.422;2023-10-13T05:37:44;100903.25;;;14.81;89.54
81352;BME280;70809;52.184;13.422;2023-10-13T05:38:46;100899.69;;;14.85;89.60
81352;BME280;70809;52.184;13.422;2023-10-13T05:39:48;100901.47;;;14.87;89.83
81352;BME280;70809;52.184;13.422;2023-10-13T05:40:52;100903.22;;;14.88;89.85
81352;BME280;70809;52.184;13.422;2023-10-13T05:41:54;100902.34;;;14.91;89.66
81352;BME280;70809;52.184;13.422;2023-10-13T05:42:56;100902.34;;;14.91;89.66
81352;BME280;70809;52.184;13.422;2023-10-13T05:43:59;100904.13;;;14.94;89.42
81352;BME280;70809;52.184;13.422;2023-10-13T05:45:01;100909.41;;;14.95;89.30
81352;BME280;70809;52.184;13.422;2023-10-13T05:46:03;100913.00;;;14.91;89.28
81352;BME280;70809;52.184;13.422;2023-10-13T05:47:07;100912.09;;;14.87;89.40
81352;BME280;70809;52.184;13.422;2023-10-13T05:48:09;100909.44;;;14.89;89.88
81352;BME280;70809;52.184;13.422;2023-10-13T05:49:12;100909.44;;;14.86;89.75
81352;BME280;70809;52.184;13.422;2023-10-13T05:50:14;100903.22;;;14.84;89.36
81352;BME280;70809;52.184;13.422;2023-10-13T05:51:21;100909.44;;;14.87;89.89
81352;BME280;70809;52.184;13.422;2023-10-13T05:52:23;100906.78;;;14.92;89.80
81352;BME280;70809;52.184;13.422;2023-10-13T05:53:24;100913.00;;;14.97;90.05
81352;BME280;70809;52.184;13.422;2023-10-13T05:54:26;100908.50;;;15.02;90.09
81352;BME280;70809;52.184;13.422;2023-10-13T05:55:30;100909.41;;;15.01;90.11
81352;BME280;70809;52.184;13.422;2023-10-13T05:56:32;100905.00;;;15.03;90.08
81352;BME280;70809;52.184;13.422;2023-10-13T05:57:34;100906.78;;;15.03;89.92
81352;BME280;70809;52.184;13.422;2023-10-13T05:58:35;100906.75;;;15.06;89.73
81352;BME280;70809;52.184;13.422;2023-10-13T05:59:39;100896.09;;;15.10;89.67
81352;BME280;70809;52.184;13.422;2023-10-13T06:00:41;100899.66;;;15.06;88.84
81352;BME280;70809;52.184;13.422;2023-10-13T06:01:43;100904.97;;;15.09;88.94
81352;BME280;70809;52.184;13.422;2023-10-13T06:02:45;100890.78;;;15.10;89.08
81352;BME280;70809;52.184;13.422;2023-10-13T06:03:47;100890.75;;;15.13;88.74
81352;BME280;70809;52.184;13.422;2023-10-13T06:04:48;100891.66;;;15.14;88.51
81352;BME280;70809;52.184;13.422;2023-10-13T06:05:51;100881.91;;;15.14;88.27
81352;BME280;70809;52.184;13.422;2023-10-13T06:06:52;100882.78;;;15.15;88.28
81352;BME280;70809;52.184;13.422;2023-10-13T06:07:54;100889.00;;;15.06;88.01
81352;BME280;70809;52.184;13.422;2023-10-13T06:08:56;100881.91;;;15.02;88.54
81352;BME280;70809;52.184;13.422;2023-10-13T06:09:57;100891.69;;;15.05;88.90
81352;BME280;70809;52.184;13.422;2023-10-13T06:11:03;100894.31;;;15.06;88.75
81352;BME280;70809;52.184;13.422;2023-10-13T06:12:05;100888.16;;;15.03;88.02
81352;BME280;70809;52.184;13.422;2023-10-13T06:13:06;100889.03;;;15.05;88.53